Time;durP1;ratioP1;P1;durP2;ratioP2;P2;SDS_P1;SDS_P2;PMS_P1;PMS_P2;Temp;Humidity;BMP_temperature;BMP_pressure;BME280_temperature;BME280_humidity;BME280_pressure;Samples;Min_cycle;Max_cycle;Signal;HPM_P1;HPM_P2
2020/12/13 00:04:24;;;;;;;35.95;17.45;;;;;;;4.28;100.00;93582.84;10572397;28;20387;-75
2020/12/13 00:09:24;;;;;;;32.97;16.47;;;;;;;4.19;100.00;93580.97;10542898;28;20035;-75
2020/12/13 00:14:24;;;;;;;34.27;15.60;;;;;;;4.30;100.00;93585.25;10529489;28;20294;-79
2020/12/13 00:19:25;;;;;;;29.00;14.83;;;;;;;4.33;100.00;93574.06;10555689;28;20297;-78
2020/12/13 00:24:26;;;;;;;33.45;15.23;;;;;;;4.32;100.00;93585.75;10567141;28;20818;-79
2020/12/13 00:29:26;;;;;;;31.20;15.95;;;;;;;4.45;100.00;93568.50;10567141;28;20088;-79
2020/12/13 00:34:27;;;;;;;38.15;15.75;;;;;;;4.54;100.00;93577.56;10570288;28;20034;-78
2020/12/13 00:39:28;;;;;;;28.52;15.20;;;;;;;4.63;100.00;93585.81;10570450;28;20110;-79
2020/12/13 00:44:29;;;;;;;30.92;15.25;;;;;;;4.67;100.00;93580.78;10570325;28;20041;-79
2020/12/13 00:49:29;;;;;;;35.07;16.27;;;;;;;4.55;100.00;93573.03;10570733;28;20776;-78
2020/12/13 00:54:30;;;;;;;32.07;15.00;;;;;;;4.56;100.00;93580.78;10570351;28;20286;-79
2020/12/13 00:59:30;;;;;;;34.95;17.02;;;;;;;4.59;100.00;93574.09;10552069;28;20662;-79
2020/12/13 01:04:32;;;;;;;33.40;16.67;;;;;;;4.76;100.00;93577.31;10569161;28;20038;-79
2020/12/13 01:09:32;;;;;;;35.15;15.60;;;;;;;4.69;100.00;93586.63;10552284;28;20105;-78
2020/12/13 01:14:33;;;;;;;32.95;14.93;;;;;;;4.76;100.00;93592.50;10571109;28;20039;-80
2020/12/13 01:19:34;;;;;;;30.50;14.77;;;;;;;4.67;100.00;93589.56;10571511;28;20024;-78
2020/12/13 01:24:34;;;;;;;27.00;13.75;;;;;;;4.56;100.00;93590.59;10552154;28;20347;-78
2020/12/13 01:29:34;;;;;;;25.80;11.68;;;;;;;4.40;100.00;93597.75;10569969;28;20039;-78
2020/12/13 01:34:35;;;;;;;23.67;11.87;;;;;;;4.11;100.00;93604.31;10569724;28;20039;-79
2020/12/13 01:39:36;;;;;;;23.35;11.50;;;;;;;4.13;100.00;93597.94;10548615;28;20640;-79
2020/12/13 01:44:37;;;;;;;20.35;10.60;;;;;;;4.09;100.00;93589.69;10569684;28;20040;-79
2020/12/13 01:49:44;;;;;;;22.17;11.70;;;;;;;4.04;100.00;93589.66;10569789;28;20438;-79
2020/12/13 01:54:46;;;;;;;24.23;12.48;;;;;;;4.01;100.00;93595.50;10570082;28;20035;-80
2020/12/13 01:59:50;;;;;;;25.23;12.13;;;;;;;4.09;100.00;93592.34;10570993;28;20028;-79
2020/12/13 02:04:55;;;;;;;23.65;11.55;;;;;;;4.25;100.00;93588.66;10570516;28;20385;-79
2020/12/13 02:09:58;;;;;;;23.80;13.43;;;;;;;4.15;100.00;93583.31;10571054;28;20096;-79
2020/12/13 02:14:58;;;;;;;25.33;13.40;;;;;;;4.08;100.00;93586.22;10570743;28;20539;-80
2020/12/13 02:19:59;;;;;;;27.90;14.40;;;;;;;4.12;100.00;93578.53;10577080;28;20039;-79
2020/12/13 02:25:22;;;;;;;31.00;12.77;;;;;;;4.18;100.00;93585.47;10577212;28;20309;-79
2020/12/13 02:30:22;;;;;;;20.95;11.13;;;;;;;4.24;100.00;93595.06;10574960;28;20097;-79
2020/12/13 02:35:23;;;;;;;31.07;12.77;;;;;;;4.24;100.00;93599.56;10554897;28;20089;-79
2020/12/13 02:40:23;;;;;;;21.55;10.57;;;;;;;4.26;100.00;93590.28;10557010;28;20346;-79
2020/12/13 02:45:24;;;;;;;22.67;11.50;;;;;;;4.40;100.00;93603.09;10576502;28;20046;-79
2020/12/13 02:50:24;;;;;;;20.33;9.95;;;;;;;4.44;100.00;93604.16;10576587;28;20308;-79
2020/12/13 02:55:25;;;;;;;21.70;9.30;;;;;;;4.48;100.00;93599.91;10576547;28;20035;-79
2020/12/13 03:00:25;;;;;;;22.50;10.52;;;;;;;4.54;100.00;93598.84;10576421;28;20791;-79
2020/12/13 03:05:25;;;;;;;22.70;11.87;;;;;;;4.56;100.00;93595.94;10557365;28;20825;-79
2020/12/13 03:10:26;;;;;;;23.00;11.53;;;;;;;4.44;100.00;93604.16;10575423;28;20293;-79
2020/12/13 03:15:26;;;;;;;19.33;10.10;;;;;;;4.38;100.00;93615.84;10576244;28;20386;-79
2020/12/13 03:20:26;;;;;;;22.27;10.20;;;;;;;4.26;100.00;93614.19;10556544;28;20035;-78
2020/12/13 03:25:28;;;;;;;20.77;10.02;;;;;;;4.23;100.00;93617.41;10574301;28;20389;-78
2020/12/13 03:30:28;;;;;;;17.07;8.93;;;;;;;4.28;100.00;93614.75;10574090;28;20407;-79
2020/12/13 03:35:28;;;;;;;17.30;8.77;;;;;;;4.30;100.00;93619.81;10574509;28;21007;-79
2020/12/13 03:40:29;;;;;;;27.20;13.30;;;;;;;4.38;100.00;93618.50;10574648;28;20119;-79
2020/12/13 03:45:29;;;;;;;30.63;15.07;;;;;;;4.33;100.00;93621.94;10554615;28;20050;-79
2020/12/13 03:50:38;;;;;;;28.15;15.18;;;;;;;4.31;100.00;93621.41;10574330;28;20035;-79
2020/12/13 03:55:40;;;;;;;28.98;14.60;;;;;;;4.19;100.00;93623.50;10558045;28;20059;-79
2020/12/13 04:00:41;;;;;;;30.98;16.73;;;;;;;4.27;100.00;93628.31;10576877;28;20513;-79
2020/12/13 04:05:41;;;;;;;29.10;14.63;;;;;;;4.15;100.00;93620.56;10576606;28;20031;-79
2020/12/13 04:10:41;;;;;;;29.52;15.25;;;;;;;3.81;100.00;93626.25;10576248;28;20031;-79
2020/12/13 04:15:42;;;;;;;34.73;16.23;;;;;;;3.64;100.00;93637.03;10574359;28;20039;-79
2020/12/13 04:20:42;;;;;;;29.43;15.80;;;;;;;3.62;100.00;93646.34;10557746;28;20297;-80
2020/12/13 04:25:43;;;;;;;34.90;17.67;;;;;;;3.37;100.00;93645.13;10574230;28;20287;-79
2020/12/13 04:30:43;;;;;;;35.07;17.97;;;;;;;3.31;100.00;93657.56;10552595;28;20277;-79
2020/12/13 04:35:43;;;;;;;46.92;22.05;;;;;;;3.33;100.00;93649.34;10570965;28;20285;-79
2020/12/13 04:40:44;;;;;;;68.07;33.53;;;;;;;3.11;100.00;93655.53;10572082;28;20070;-79
2020/12/13 04:45:45;;;;;;;89.32;39.97;;;;;;;2.88;100.00;93660.13;10573531;28;20301;-79
2020/12/13 04:50:49;;;;;;;85.63;41.05;;;;;;;2.88;100.00;93669.94;10574021;28;20027;-79
2020/12/13 04:55:53;;;;;;;90.32;41.55;;;;;;;2.91;100.00;93662.25;10573261;28;20367;-79
2020/12/13 05:00:59;;;;;;;92.15;45.97;;;;;;;2.88;100.00;93665.41;10570787;28;20524;-78
2020/12/13 05:06:01;;;;;;;93.82;43.97;;;;;;;2.84;100.00;93676.78;10569109;28;20097;-78
2020/12/13 05:11:01;;;;;;;98.15;44.33;;;;;;;2.98;100.00;93670.03;10560690;28;20111;-78
2020/12/13 05:16:06;;;;;;;100.15;44.03;;;;;;;2.90;100.00;93668.63;10527225;28;20043;-78
2020/12/13 05:21:07;;;;;;;96.70;39.95;;;;;;;2.99;100.00;93666.31;10526696;28;20406;-78
2020/12/13 05:26:10;;;;;;;103.07;42.78;;;;;;;2.84;100.00;93669.63;10568138;28;20032;-78
2020/12/13 05:31:12;;;;;;;108.53;43.03;;;;;;;2.79;100.00;93680.22;10526529;28;20036;-78
2020/12/13 05:36:15;;;;;;;104.03;44.78;;;;;;;2.74;100.00;93677.50;10526515;28;20035;-78
2020/12/13 05:41:16;;;;;;;110.43;45.95;;;;;;;2.79;100.00;93677.56;10509244;28;20114;-78
2020/12/13 05:51:41;;;;;;;114.88;43.92;;;;;;;2.65;100.00;93697.56;10532148;28;20178;-78
2020/12/13 05:56:41;;;;;;;115.38;43.15;;;;;;;2.71;100.00;93707.19;10537939;28;20039;-78
2020/12/13 06:01:46;;;;;;;99.40;38.60;;;;;;;2.80;100.00;93705.66;10537531;28;20036;-78
2020/12/13 06:06:46;;;;;;;101.03;42.78;;;;;;;2.95;100.00;93712.19;10537361;28;20325;-78
2020/12/13 06:11:49;;;;;;;106.17;40.07;;;;;;;3.07;100.00;93710.19;10547716;28;20197;-78
2020/12/13 06:16:50;;;;;;;108.25;39.75;;;;;;;3.11;100.00;93723.75;10581680;28;20297;-79
2020/12/13 06:21:54;;;;;;;105.25;41.15;;;;;;;3.30;100.00;93726.84;10541354;28;20040;-78
2020/12/13 06:26:56;;;;;;;101.95;35.47;;;;;;;3.41;100.00;93732.00;10536371;28;20039;-78
2020/12/13 06:31:58;;;;;;;77.07;30.90;;;;;;;3.56;100.00;93725.22;10518679;28;20059;-79
2020/12/13 06:37:04;;;;;;;95.72;37.25;;;;;;;3.62;100.00;93726.84;10518186;28;20081;-78
2020/12/13 06:42:04;;;;;;;88.32;33.35;;;;;;;3.81;100.00;93735.22;10535086;28;20036;-74
2020/12/13 06:47:22;;;;;;;87.20;35.15;;;;;;;4.02;100.00;93743.31;10534616;28;20040;-74
2020/12/13 06:52:31;;;;;;;85.27;34.37;;;;;;;3.91;100.00;93737.94;10553419;28;20031;-74
2020/12/13 06:57:34;;;;;;;85.82;33.55;;;;;;;4.15;100.00;93742.88;10576372;28;20115;-74
2020/12/13 07:02:47;;;;;;;84.85;32.70;;;;;;;4.29;100.00;93753.84;10540864;28;20032;-74
2020/12/13 07:07:54;;;;;;;42.75;16.70;;;;;;;4.18;100.00;93745.00;10570651;28;20035;-75
2020/12/13 07:12:56;;;;;;;26.48;12.80;;;;;;;4.33;100.00;93744.31;10575929;28;20538;-75
2020/12/13 07:17:57;;;;;;;60.95;23.52;;;;;;;4.41;100.00;93751.78;10561582;28;20116;-74
2020/12/13 07:22:58;;;;;;;25.92;11.75;;;;;;;4.63;100.00;93756.13;10555714;28;20146;-74
2020/12/13 07:27:59;;;;;;;34.03;13.90;;;;;;;4.83;100.00;93767.91;10527139;28;20590;-75
2020/12/13 07:32:59;;;;;;;36.88;16.27;;;;;;;4.99;100.00;93779.44;10548271;28;20034;-74
2020/12/13 07:38:01;;;;;;;29.73;13.57;;;;;;;5.13;100.00;93783.19;10548060;28;20392;-75
2020/12/13 07:43:02;;;;;;;33.22;13.93;;;;;;;5.22;100.00;93794.94;10532728;28;20044;-77
2020/12/13 07:48:03;;;;;;;38.78;16.35;;;;;;;5.03;100.00;93804.47;10526713;28;20510;-77
2020/12/13 07:53:03;;;;;;;37.70;15.38;;;;;;;5.12;100.00;93798.38;10549959;28;20035;-78
2020/12/13 07:58:04;;;;;;;42.08;19.95;;;;;;;5.36;100.00;93805.09;10556181;28;20508;-77
2020/12/13 08:03:05;;;;;;;52.07;26.00;;;;;;;5.20;100.00;93823.69;10571237;28;20028;-77
2020/12/13 08:08:06;;;;;;;56.58;28.70;;;;;;;5.08;100.00;93836.44;10571084;28;20784;-77
2020/12/13 08:13:07;;;;;;;61.87;28.73;;;;;;;5.26;100.00;93832.50;10571809;28;20035;-77
2020/12/13 08:18:13;;;;;;;49.83;25.40;;;;;;;5.38;100.00;93822.41;10571348;28;20694;-78
2020/12/13 08:23:14;;;;;;;53.72;25.70;;;;;;;5.90;100.00;93820.66;10571135;28;20055;-78
2020/12/13 08:28:15;;;;;;;61.60;27.92;;;;;;;6.16;100.00;93807.31;10545067;28;20032;-77
2020/12/13 08:33:17;;;;;;;55.53;26.25;;;;;;;6.58;100.00;93814.19;10529062;28;20035;-78
2020/12/13 08:38:20;;;;;;;62.58;28.52;;;;;;;6.82;100.00;93809.06;10528696;28;20493;-78
2020/12/13 08:43:22;;;;;;;56.40;28.40;;;;;;;6.87;100.00;93810.91;10529317;28;20032;-79
2020/12/13 08:48:27;;;;;;;57.72;25.65;;;;;;;6.62;100.00;93831.28;10528602;28;20039;-77
2020/12/13 08:53:27;;;;;;;60.78;26.45;;;;;;;6.38;100.00;93822.22;10528361;28;20040;-78
2020/12/13 08:58:28;;;;;;;58.25;25.23;;;;;;;6.45;100.00;93834.25;10510566;28;20419;-77
2020/12/13 09:03:28;;;;;;;57.50;25.10;;;;;;;6.44;100.00;93831.84;10528520;28;20387;-77
2020/12/13 09:08:29;;;;;;;49.45;23.42;;;;;;;5.98;100.00;93838.78;10509856;28;20286;-77
2020/12/13 09:13:30;;;;;;;67.27;28.27;;;;;;;5.62;100.00;93833.41;10559999;28;20036;-77
2020/12/13 09:18:31;;;;;;;51.20;23.30;;;;;;;5.78;100.00;93836.09;10525721;28;20704;-77
2020/12/13 09:23:32;;;;;;;52.67;25.08;;;;;;;6.06;100.00;93826.81;10527351;28;20036;-77
2020/12/13 09:28:32;;;;;;;50.63;22.02;;;;;;;6.22;100.00;93821.47;10526464;28;20693;-77
2020/12/13 09:33:32;;;;;;;61.37;26.63;;;;;;;6.26;100.00;93823.31;10527519;28;20035;-78
2020/12/13 09:38:33;;;;;;;68.37;30.07;;;;;;;6.05;100.00;93824.41;10525925;28;20028;-78
2020/12/13 09:43:33;;;;;;;62.50;27.27;;;;;;;5.95;100.00;93831.28;10527280;28;20127;-78
2020/12/13 09:48:34;;;;;;;63.67;27.43;;;;;;;5.80;100.00;93820.63;10527423;28;20028;-78
2020/12/13 09:53:34;;;;;;;58.55;25.92;;;;;;;6.29;100.00;93821.97;10526476;28;20286;-78
2020/12/13 09:58:35;;;;;;;58.93;25.30;;;;;;;6.67;100.00;93819.78;10526643;28;20043;-78
2020/12/13 10:03:35;;;;;;;48.33;22.63;;;;;;;6.90;100.00;93802.34;10527316;28;20036;-77
2020/12/13 10:14:15;;;;;;;61.33;30.20;;;;;;;7.57;100.00;93794.00;10393171;28;20436;-77
2020/12/13 10:19:15;;;;;;;61.78;29.40;;;;;;;7.43;100.00;93793.81;10413674;28;20075;-77
2020/12/13 10:24:16;;;;;;;52.50;25.40;;;;;;;8.38;100.00;93802.47;10440782;28;20041;-77
2020/12/13 10:29:16;;;;;;;56.92;24.33;;;;;;;8.40;100.00;93804.88;10442650;28;20556;-77
2020/12/13 10:34:17;;;;;;;54.53;25.35;;;;;;;8.59;100.00;93794.25;10443206;28;20083;-77
2020/12/13 10:39:20;;;;;;;51.03;23.02;;;;;;;9.83;100.00;93788.16;10445559;28;20025;-78
2020/12/13 10:44:20;;;;;;;53.00;24.67;;;;;;;10.70;100.00;93772.53;10448352;28;20033;-78
2020/12/13 10:49:21;;;;;;;56.80;23.92;;;;;;;10.84;100.00;93777.91;10459731;28;20025;-77
2020/12/13 10:54:21;;;;;;;53.92;25.98;;;;;;;10.84;100.00;93783.28;10448245;28;20108;-77
2020/12/13 10:59:22;;;;;;;64.15;27.85;;;;;;;9.84;100.00;93791.66;10469710;28;20025;-78
2020/12/13 11:04:22;;;;;;;58.22;28.05;;;;;;;8.65;100.00;93793.16;10488295;28;20111;-79
2020/12/13 11:09:23;;;;;;;58.10;26.90;;;;;;;8.22;100.00;93793.00;10482053;28;20511;-77
2020/12/13 11:14:23;;;;;;;62.55;28.88;;;;;;;7.75;100.00;93792.56;10484123;28;20301;-78
2020/12/13 11:19:23;;;;;;;68.00;32.13;;;;;;;7.44;100.00;93783.94;10508463;28;20036;-77
2020/12/13 11:24:24;;;;;;;71.75;32.13;;;;;;;7.84;100.00;93784.72;10477230;28;20302;-77
2020/12/13 11:29:27;;;;;;;61.00;26.70;;;;;;;7.46;100.00;93779.91;10485528;28;20091;-76
2020/12/13 11:34:27;;;;;;;59.58;28.13;;;;;;;7.19;100.00;93786.47;10475535;28;20033;-77
2020/12/13 11:39:28;;;;;;;68.00;30.03;;;;;;;6.82;100.00;93786.88;10461994;28;20422;-77
2020/12/13 11:44:28;;;;;;;61.50;26.50;;;;;;;6.74;100.00;93784.78;10475164;28;20283;-77
2020/12/13 11:49:29;;;;;;;59.92;26.85;;;;;;;6.74;100.00;93785.59;10481541;28;20068;-76
2020/12/13 11:54:29;;;;;;;59.00;27.87;;;;;;;6.64;100.00;93793.63;10466940;28;20029;-75
2020/12/13 11:59:30;;;;;;;61.38;28.70;;;;;;;6.64;100.00;93807.78;10471095;28;20295;-75
2020/12/13 12:04:30;;;;;;;66.70;30.45;;;;;;;7.13;100.00;93797.44;10478018;28;20044;-75
2020/12/13 12:09:30;;;;;;;54.30;27.03;;;;;;;7.12;100.00;93796.66;10488195;28;20036;-74
2020/12/13 12:14:31;;;;;;;56.55;28.70;;;;;;;7.10;100.00;93798.00;10492196;28;20101;-75
2020/12/13 12:19:32;;;;;;;57.70;27.70;;;;;;;7.04;100.00;93807.13;10529783;28;20042;-75
2020/12/13 12:24:33;;;;;;;55.78;26.83;;;;;;;7.15;100.00;93817.47;10523601;28;20031;-74
2020/12/13 12:29:33;;;;;;;49.15;24.75;;;;;;;7.28;100.00;93824.09;10473795;28;20044;-75
2020/12/13 12:34:33;;;;;;;50.40;22.23;;;;;;;7.60;100.00;93822.84;10487459;28;20064;-75
2020/12/13 12:39:34;;;;;;;46.05;19.65;;;;;;;7.63;100.00;93816.97;10487747;28;20024;-75
2020/12/13 12:44:34;;;;;;;41.97;20.37;;;;;;;7.32;100.00;93821.69;10487092;28;20041;-75
2020/12/13 12:49:34;;;;;;;44.17;20.17;;;;;;;7.64;100.00;93834.59;10486799;28;20369;-75
2020/12/13 12:54:35;;;;;;;36.07;17.77;;;;;;;7.78;100.00;93828.66;10468450;28;20036;-75
2020/12/13 13:05:11;;;;;;;34.72;18.80;;;;;;;7.77;100.00;93841.22;10414273;28;20654;-75
2020/12/13 13:10:24;;;;;;;35.35;17.63;;;;;;;7.81;100.00;93849.47;10495717;28;20028;-74
2020/12/13 13:15:53;;;;;;;34.47;17.38;;;;;;;7.49;100.00;93851.53;10526506;28;20118;-74
2020/12/13 13:20:55;;;;;;;30.73;16.63;;;;;;;7.30;100.00;93858.59;10526704;28;20044;-75
2020/12/13 13:25:56;;;;;;;40.70;17.63;;;;;;;7.36;100.00;93852.91;10526374;28;20824;-74
2020/12/13 13:30:56;;;;;;;37.72;18.02;;;;;;;7.55;100.00;93862.19;10526899;28;20119;-74
2020/12/13 13:35:57;;;;;;;29.80;14.93;;;;;;;7.30;100.00;93866.59;10526435;28;20044;-74
2020/12/13 13:40:57;;;;;;;33.28;16.33;;;;;;;7.36;100.00;93862.81;10526356;28;20028;-74
2020/12/13 13:51:25;;;;;;;26.58;13.45;;;;;;;7.49;100.00;93869.44;10511254;28;20391;-75
2020/12/13 13:56:31;;;;;;;39.67;17.50;;;;;;;7.12;100.00;93860.78;10504891;28;20094;-74
2020/12/13 14:01:36;;;;;;;30.20;15.73;;;;;;;7.23;100.00;93874.09;10488515;28;20044;-74
2020/12/13 14:11:56;;;;;;;38.10;17.58;;;;;;;7.52;100.00;93874.22;10519844;28;20114;-74
2020/12/13 14:16:58;;;;;;;38.78;18.67;;;;;;;7.58;100.00;93899.88;10503599;28;20197;-74
2020/12/13 14:21:58;;;;;;;50.35;20.48;;;;;;;7.58;100.00;93899.88;10441151;28;20033;-74
2020/12/13 14:27:00;;;;;;;32.15;15.65;;;;;;;7.58;100.00;93905.25;10479610;28;20036;-74
2020/12/13 14:32:01;;;;;;;34.42;15.98;;;;;;;7.56;100.00;93909.25;10455719;28;20060;-74
2020/12/13 14:37:02;;;;;;;32.78;15.18;;;;;;;7.61;100.00;93907.34;10462066;28;20037;-74
2020/12/13 14:42:02;;;;;;;29.58;15.93;;;;;;;7.52;100.00;93917.00;10438536;28;20037;-74
2020/12/13 14:47:03;;;;;;;29.55;14.93;;;;;;;7.55;100.00;93921.00;10449672;28;20045;-72
2020/12/13 14:52:04;;;;;;;15.52;7.88;;;;;;;7.18;100.00;93931.03;10447694;28;20033;-72
2020/12/13 14:57:05;;;;;;;14.45;7.97;;;;;;;7.03;100.00;93931.88;10464241;28;20033;-79
2020/12/13 15:02:05;;;;;;;13.48;6.97;;;;;;;6.94;100.00;93944.97;10485473;28;20032;-78
2020/12/13 15:07:06;;;;;;;17.03;6.30;;;;;;;6.79;100.00;93950.34;10464105;28;20038;-77
2020/12/13 15:12:07;;;;;;;15.88;6.80;;;;;;;6.69;100.00;93969.84;10467756;28;20085;-77
2020/12/13 15:22:11;;;;;;;10.50;6.72;;;;;;;6.47;100.00;93980.78;10574557;28;20054;-77
2020/12/13 15:27:12;;;;;;;13.52;7.68;;;;;;;6.37;100.00;93988.78;10566604;28;20028;-78
2020/12/13 15:32:12;;;;;;;15.02;7.38;;;;;;;6.32;100.00;94001.03;10531964;28;20050;-79
2020/12/13 15:37:13;;;;;;;11.70;6.87;;;;;;;6.12;100.00;94014.34;10540269;28;20028;-78
2020/12/13 15:42:13;;;;;;;10.50;5.68;;;;;;;6.03;100.00;94005.22;10522944;28;20286;-79
2020/12/13 15:47:14;;;;;;;11.63;5.97;;;;;;;5.98;100.00;94003.34;10551230;28;20867;-77
2020/12/13 15:52:15;;;;;;;10.23;5.72;;;;;;;5.92;100.00;94015.84;10539713;28;20501;-77
2020/12/13 15:57:17;;;;;;;11.63;5.65;;;;;;;5.82;100.00;94010.47;10537476;28;20027;-79
2020/12/13 16:02:17;;;;;;;9.25;5.40;;;;;;;5.92;100.00;94021.19;10543377;28;20027;-78
2020/12/13 16:12:18;;;;;;;13.03;6.90;;;;;;;5.83;100.00;94025.41;10561624;28;20562;-78
2020/12/13 16:17:19;;;;;;;10.60;6.55;;;;;;;5.76;100.00;94033.66;10507167;28;20044;-78
2020/12/13 16:22:20;;;;;;;16.63;6.20;;;;;;;5.61;100.00;94025.56;10507044;28;20036;-78
2020/12/13 16:27:20;;;;;;;10.13;5.95;;;;;;;5.65;100.00;94032.81;10499254;28;20102;-78
2020/12/13 16:32:22;;;;;;;13.93;7.20;;;;;;;5.69;100.00;94033.06;10504439;28;20038;-78
2020/12/13 16:37:23;;;;;;;10.90;6.35;;;;;;;5.44;100.00;94028.41;10501957;28;20039;-78
2020/12/13 16:42:38;;;;;;;12.90;7.78;;;;;;;5.59;100.00;94041.81;10504442;28;20783;-77
2020/12/13 16:47:48;;;;;;;14.60;7.57;;;;;;;5.64;100.00;94044.53;10499927;28;20024;-77
2020/12/13 16:58:24;;;;;;;11.73;6.50;;;;;;;5.84;100.00;94048.34;10478438;28;20041;-80
2020/12/13 17:03:24;;;;;;;18.02;6.78;;;;;;;5.90;100.00;94055.31;10504838;28;20435;-80
2020/12/13 17:08:27;;;;;;;9.90;6.22;;;;;;;5.83;100.00;94060.06;10485773;28;20086;-78
2020/12/13 17:13:30;;;;;;;11.57;6.78;;;;;;;5.80;100.00;94064.06;10482449;28;20025;-78
2020/12/13 17:18:30;;;;;;;12.60;6.65;;;;;;;5.90;100.00;94063.31;10508244;28;20487;-79
2020/12/13 17:23:32;;;;;;;13.60;7.63;;;;;;;5.99;100.00;94072.44;10491443;28;20127;-78
2020/12/13 17:28:32;;;;;;;11.27;6.25;;;;;;;5.92;100.00;94076.41;10485540;28;20048;-78
2020/12/13 17:33:33;;;;;;;12.75;5.97;;;;;;;5.97;100.00;94074.59;10524884;28;20024;-78
2020/12/13 17:38:33;;;;;;;10.50;6.20;;;;;;;5.79;100.00;94080.31;10511019;28;20032;-78
2020/12/13 17:43:36;;;;;;;13.63;7.47;;;;;;;5.75;100.00;94064.03;10502201;28;20119;-78
2020/12/13 17:48:37;;;;;;;13.35;5.90;;;;;;;5.78;100.00;94068.06;10488203;28;20140;-78
2020/12/13 17:58:55;;;;;;;10.77;5.72;;;;;;;5.57;100.00;94085.81;10493714;28;20500;-77
2020/12/13 18:03:56;;;;;;;10.07;5.25;;;;;;;5.49;100.00;94087.09;10514774;28;20043;-77
2020/12/13 18:08:56;;;;;;;10.87;5.93;;;;;;;5.53;100.00;94101.50;10521405;28;20059;-74
2020/12/13 18:13:56;;;;;;;9.70;5.68;;;;;;;5.66;100.00;94108.25;10530335;28;20304;-74
2020/12/13 18:18:58;;;;;;;10.95;5.18;;;;;;;5.62;100.00;94107.16;10530683;28;20020;-74
2020/12/13 18:23:59;;;;;;;13.80;6.45;;;;;;;5.71;100.00;94110.16;10530871;28;20530;-75
2020/12/13 18:29:00;;;;;;;12.88;7.35;;;;;;;5.67;100.00;94106.41;10517368;28;20062;-75
2020/12/13 18:34:03;;;;;;;11.80;7.10;;;;;;;5.64;100.00;94105.84;10531570;28;20039;-74
2020/12/13 18:39:06;;;;;;;11.77;5.85;;;;;;;5.65;100.00;94112.78;10505140;28;20036;-77
2020/12/13 18:44:07;;;;;;;11.73;6.38;;;;;;;5.60;100.00;94109.28;10491563;28;20043;-75
2020/12/13 18:49:09;;;;;;;18.58;8.23;;;;;;;5.55;100.00;94120.69;10496716;28;20025;-75
2020/12/13 18:54:15;;;;;;;15.40;8.57;;;;;;;5.72;100.00;94128.56;10527077;28;20109;-76
2020/12/13 18:59:17;;;;;;;16.80;9.57;;;;;;;5.72;100.00;94128.56;10530984;28;20190;-77
2020/12/13 19:09:24;;;;;;;36.85;17.02;;;;;;;5.52;100.00;94120.41;10531366;28;20043;-74
2020/12/13 19:14:25;;;;;;;40.83;19.50;;;;;;;5.39;100.00;94119.00;10531629;28;20043;-74
2020/12/13 19:19:26;;;;;;;35.67;17.15;;;;;;;5.02;100.00;94117.09;10524056;28;20066;-74
2020/12/13 19:24:28;;;;;;;36.00;16.70;;;;;;;5.00;100.00;94119.22;10511067;28;20032;-75
2020/12/13 19:29:33;;;;;;;37.22;18.13;;;;;;;4.69;100.00;94122.41;10504693;28;20056;-74
2020/12/13 19:34:34;;;;;;;32.15;14.45;;;;;;;4.82;100.00;94123.84;10489234;28;20045;-75
2020/12/13 19:39:35;;;;;;;38.50;15.85;;;;;;;4.67;100.00;94124.50;10471071;28;20419;-75
2020/12/13 19:44:35;;;;;;;28.98;14.30;;;;;;;5.00;100.00;94128.00;10509452;28;20047;-75
2020/12/13 19:49:38;;;;;;;32.45;14.65;;;;;;;5.22;100.00;94127.94;10498824;28;20036;-75
2020/12/13 19:54:40;;;;;;;26.98;12.73;;;;;;;5.25;100.00;94124.75;10488058;28;20029;-74
2020/12/13 19:59:45;;;;;;;25.98;13.55;;;;;;;5.03;100.00;94129.38;10507441;28;20028;-75
2020/12/13 20:04:48;;;;;;;26.17;12.82;;;;;;;4.79;100.00;94127.03;10508972;28;20170;-74
2020/12/13 20:09:49;;;;;;;26.42;13.75;;;;;;;4.62;100.00;94108.50;10490093;28;20036;-74
2020/12/13 20:37:30;;;;;;;27.45;13.27;;;;;;;4.72;100.00;94113.13;10487253;28;20037;-74
2020/12/13 21:17:58;;;;;;;26.40;14.68;;;;;;;4.56;100.00;94158.22;10525640;28;20115;-72
2020/12/13 21:23:00;;;;;;;32.20;13.57;;;;;;;4.36;100.00;94168.63;10513744;28;20810;-74
2020/12/13 21:33:45;;;;;;;27.45;14.57;;;;;;;4.04;100.00;94178.03;10494806;28;20031;-74
2020/12/13 21:44:24;;;;;;;24.88;12.50;;;;;;;3.97;100.00;94177.44;10516289;28;20410;-73
2020/12/13 21:54:47;;;;;;;26.88;13.90;;;;;;;4.46;100.00;94176.69;10526215;28;20057;-73
2020/12/13 21:59:49;;;;;;;30.95;13.60;;;;;;;4.33;100.00;94172.56;10501259;28;20037;-77
2020/12/13 22:31:27;;;;;;;35.85;14.98;;;;;;;4.64;100.00;94186.22;10527306;28;20499;-77
2020/12/13 22:36:29;;;;;;;27.03;14.20;;;;;;;4.79;100.00;94190.91;10533493;28;20032;-77
2020/12/13 22:41:30;;;;;;;33.88;14.80;;;;;;;4.78;100.00;94195.41;10534639;28;20552;-77
2020/12/13 22:46:30;;;;;;;27.33;12.95;;;;;;;4.76;100.00;94188.75;10534279;28;20035;-77
2020/12/13 22:51:31;;;;;;;29.67;14.77;;;;;;;4.60;100.00;94185.13;10533911;28;20537;-77
2020/12/13 22:56:35;;;;;;;31.77;15.18;;;;;;;4.35;100.00;94185.63;10532917;28;20035;-77
2020/12/13 23:01:40;;;;;;;30.40;14.15;;;;;;;4.13;100.00;94194.41;10532246;28;20071;-77
2020/12/13 23:06:41;;;;;;;38.65;14.93;;;;;;;4.17;100.00;94198.19;10532164;28;20036;-77
2020/12/13 23:11:41;;;;;;;29.30;13.70;;;;;;;4.44;100.00;94195.56;10532472;28;20031;-78
2020/12/13 23:16:45;;;;;;;22.53;12.37;;;;;;;4.61;100.00;94200.81;10513945;28;20071;-77
2020/12/13 23:21:46;;;;;;;24.40;13.65;;;;;;;4.78;100.00;94205.28;10491435;28;20302;-77
2020/12/13 23:26:46;;;;;;;25.30;12.00;;;;;;;4.78;100.00;94202.63;10491595;28;20146;-77
2020/12/13 23:31:47;;;;;;;20.52;10.90;;;;;;;4.85;100.00;94195.22;10491317;28;20445;-77
2020/12/13 23:36:47;;;;;;;21.57;10.30;;;;;;;4.89;100.00;94201.66;10514450;28;20024;-78
2020/12/13 23:41:47;;;;;;;18.17;9.97;;;;;;;4.92;100.00;94184.38;10514088;28;20293;-76
2020/12/13 23:46:48;;;;;;;18.97;9.70;;;;;;;4.88;100.00;94193.94;10513401;28;20038;-77
2020/12/13 23:51:48;;;;;;;21.95;11.00;;;;;;;4.92;100.00;94182.50;10532639;28;20665;-77
2020/12/13 23:56:49;;;;;;;29.20;13.13;;;;;;;4.94;100.00;94192.94;10532959;28;20028;-77
